Aviation Digital Data Service (ADDS)

Output produced by TAFs form (1025 UTC 27 September 2016)
found at http://www.aviationweather.gov/adds/tafs/
 
TAF KDOV 270807Z 2708/2814 22009KT 8000 -SHRA OVC025 QNH2990INS 
     TEMPO 2708/2710 28010G15KT 4800 -TSRA BKN015 OVC050CB 
     BECMG 2709/2710 26009KT 8000 -SHRA OVC015 QNH2990INS 
     TEMPO 2710/2712 28010G15KT 4800 -TSRA OVC008CB 
     BECMG 2713/2714 30009KT 9000 -RA FEW010 OVC065 QNH2989INS 
     BECMG 2717/2718 22006KT 9999 NSW FEW050 SCT250 QNH2987INS 
     BECMG 2805/2806 03006KT 8000 BR FEW050 SCT200 QNH2990INS 
     BECMG 2812/2813 06006KT 9999 NSW FEW060 BKN100 QNH2994INS TX20/2708Z TN15/2805Z